• Join FlightAware (Why Join?)
  • Login
  • US Flag 
05:37PM EST


 

Airport Tracker/Info


-or-


 

Live Flight TrackerFlight Track Log ✈ SWA2236 ✈ 11-Jul-2013 ✈ KJAX - KBWI

Flight Track Log - Related Links

Times and Time Zones

All times are in EDT time to prevent confusion due to time zone crossing. See the SWA2236 flight status page for this flight to view local times or setup timezone preferences in your user account.

Time Position Orientation Groundspeed Altitude Reporting Facility
EDT Latitude Longitude Course Direction KTS MPH feet Rate Location/Type
08:22PM 30.4928 -81.7042 258° West 150 173 1,200  Level Jacksonville Center
08:23PM 30.4847 -81.7475 258° West 192 221 2,700 2,640 Climbing Jacksonville Center
08:24PM 30.4686 -81.8081 253° West 226 260 5,600 3,240 Climbing Jacksonville Center
08:25PM 30.4483 -81.8925 254° West 267 307 9,200 3,000 Climbing Jacksonville Center
08:26PM 30.4367 -81.9794 261° West 290 334 11,600 2,700 Climbing Jacksonville Center
08:27PM 30.4289 -82.0881 265° West 321 369 14,600 2,340 Climbing Jacksonville Center
08:28PM 30.4211 -82.1989 265° West 340 391 16,300 2,100 Climbing Jacksonville Center
08:29PM 30.4133 -82.3192 266° West 361 415 18,800 2,520 Climbing Jacksonville Center
08:30PM 30.4036 -82.4469 265° West 384 442 21,400 2,520 Climbing Jacksonville Center
08:31PM 30.3956 -82.5747 266° West 397 457 23,900 1,920 Climbing Jacksonville Center
08:32PM 30.3894 -82.7072 267° West 404 465 25,300 1,020 Climbing Jacksonville Center
08:33PM 30.4878 -82.8106 318° Northwest 386 444 26,000 300 Climbing Jacksonville Center
08:34PM 30.5608 -82.8997 314° West 409 471 26,000  Level Jacksonville Center
08:35PM 30.6569 -83.0011 318° Northwest 414 476 26,000 780 Level Jacksonville Center
08:36PM 30.7444 -83.1006 316° Northwest 425 489 27,600 1,500 Climbing Jacksonville Center
08:37PM 30.8361 -83.1950 319° Northwest 430 495 29,000 1,440 Climbing Jacksonville Center
08:38PM 30.9531 -83.2536 337° Northwest 446 513 30,500 1,680 Climbing Jacksonville Center
08:39PM 31.0717 -83.3050 340° North 446 513 32,400 1,920 Climbing Jacksonville Center
08:40PM 31.1717 -83.3928 323° Northwest 446 513 34,400 1,800 Climbing Jacksonville Center
08:41PM 31.2486 -83.5025 309° West 435 501 36,000 780 Climbing Jacksonville Center
08:42PM 31.3272 -83.6100 311° West 435 501 36,000 900 Level Jacksonville Center
08:43PM 31.4039 -83.7178 310° West 435 501 37,800 720 Climbing Jacksonville Center
08:45PM 31.5317 -83.9000 309° West 446 513 38,000 60 Climbing Atlanta Center
08:46PM 31.6172 -83.9997 315° West 440 506 38,000  Level Atlanta Center
08:47PM 31.7342 -84.0242 350° North 416 479 38,000  Level Atlanta Center
08:48PM 31.8531 -84.0486 350° North 416 479 38,000  Level Atlanta Center
08:49PM 31.9700 -84.0756 349° North 421 484 38,000  Level Atlanta Center
08:50PM 32.0869 -84.0978 351° North 421 484 38,000  Level Atlanta Center
08:51PM 32.2142 -84.1272 349° North 421 484 38,000  Level Atlanta Center
08:52PM 32.3331 -84.1519 350° North 426 490 38,000  Level Atlanta Center
08:53PM 32.4500 -84.1767 350° North 426 490 38,000  Level Atlanta Center
08:54PM 32.5689 -84.2039 349° North 431 496 38,000  Level Atlanta Center
08:55PM 32.6900 -84.2214 353° North 431 496 38,000  Level Atlanta Center
08:56PM 32.8089 -84.2119 North 426 490 38,000  Level Atlanta Center
08:57PM 32.9319 -84.1972 North 426 490 38,000  Level Atlanta Center
08:58PM 33.0553 -84.1850 North 431 496 38,000  Level Atlanta Center
08:59PM 33.1742 -84.1728 North 436 502 38,000  Level Atlanta Center
09:00PM 33.2975 -84.1606 North 436 502 38,000  Level Atlanta Center
09:01PM 33.4186 -84.1458 North 436 502 38,000  Level Atlanta Center
09:01PM 33.5394 -84.1336 North 436 502 38,000  Level Atlanta Center
09:03PM 33.6647 -84.1211 North 441 507 38,000  Level Atlanta Center
09:04PM 33.7900 -84.1064 North 446 513 38,000  Level Atlanta Center
09:05PM 33.9153 -84.0964 North 446 513 38,000  Level Atlanta Center
09:06PM 34.0406 -84.0839 North 446 513 38,000  Level Atlanta Center
09:07PM 34.1658 -84.0714 North 441 507 38,000  Level Atlanta Center
09:08PM 34.2742 -84.0614 North 441 507 38,000 240 Level Atlanta Center
09:09PM 34.4017 -84.0489 North 441 507 38,500 480 Climbing Atlanta Center
09:10PM 34.5247 -84.0389 North 441 507 39,000 240 Climbing Atlanta Center
09:11PM 34.6478 -84.0261 North 441 507 39,000  Level Atlanta Center
09:12PM 34.7772 -84.0108 North 435 501 39,000  Level Atlanta Center
09:13PM 34.8983 -84.0008 North 435 501 39,000  Level Atlanta Center
09:14PM 35.0194 -83.9881 North 442 509 39,000  Level Atlanta Center
09:15PM 35.1425 -83.9778 North 442 509 39,000  Level Atlanta Center
09:16PM 35.2633 -83.9625 North 442 509 39,000  Level Atlanta Center
09:17PM 35.3864 -83.9497 North 442 509 39,000  Level Atlanta Center
09:18PM 35.5139 -83.9392 North 442 509 39,000  Level Atlanta Center
09:19PM 35.6347 -83.9236 North 442 509 39,000  Level Atlanta Center
09:20PM 35.7578 -83.9108 North 442 509 39,000  Level Atlanta Center
09:21PM 35.8808 -83.8953 North 442 509 39,000  Level Atlanta Center
09:22PM 35.9956 -83.8386 22° Northeast 442 509 39,000  Level Atlanta Center
09:23PM 36.1081 -83.7664 27° Northeast 442 509 39,000  Level Atlanta Center
09:24PM 36.2669 -83.6644 27° Northeast 456 525 39,000  Level Indianapolis Center
09:25PM 36.3792 -83.5936 27° Northeast 454 522 39,000  Level Indianapolis Center
09:26PM 36.4914 -83.5217 27° Northeast 455 524 39,000  Level Indianapolis Center
09:27PM 36.6061 -83.4508 26° Northeast 458 527 39,000  Level Indianapolis Center
09:28PM 36.7214 -83.3767 27° Northeast 461 531 39,000  Level Indianapolis Center
09:29PM 36.8369 -83.3022 27° Northeast 462 532 39,000  Level Indianapolis Center
09:30PM 36.9728 -83.2144 27° Northeast 465 535 39,000  Level Indianapolis Center
09:31PM 37.0892 -83.1392 27° Northeast 463 533 39,000  Level Indianapolis Center
09:32PM 37.2061 -83.0622 28° Northeast 466 536 39,000  Level Indianapolis Center
09:33PM 37.2992 -82.9414 46° Northeast 482 555 39,000  Level Indianapolis Center
09:34PM 37.4011 -82.8297 41° Northeast 482 555 39,000  Level Indianapolis Center
09:35PM 37.5025 -82.7186 41° Northeast 482 555 39,000  Level Indianapolis Center
09:36PM 37.6058 -82.6053 41° Northeast 487 560 39,000  Level Indianapolis Center
09:37PM 37.7086 -82.4911 41° Northeast 489 563 39,000  Level Indianapolis Center
09:38PM 37.8231 -82.3989 32° Northeast 487 560 39,000  Level Indianapolis Center
09:39PM 37.9561 -82.2886 33° Northeast 486 559 39,000  Level Indianapolis Center
09:40PM 38.0719 -82.1961 32° Northeast 490 564 39,000  Level Indianapolis Center
09:41PM 38.1725 -82.1136 33° Northeast 496 571 39,000  Level Indianapolis Center
09:42PM 38.3122 -82.0050 31° Northeast 489 563 39,000  Level Indianapolis Center
09:43PM 38.3978 -81.8744 50° Northeast 503 579 39,000  Level Indianapolis Center
09:44PM 38.3911 -81.7006 93° East 499 574 39,000  Level Indianapolis Center
09:46PM 38.3822 -81.5292 94° East 493 567 39,000  Level Indianapolis Center
09:47PM 38.3742 -81.3592 93° East 489 563 39,000 -780 Level Indianapolis Center
09:48PM 38.3667 -81.1906 93° East 483 556 37,500 -1,020 Descending Indianapolis Center
09:49PM 38.3544 -80.9831 94° East 491 565 37,000 -300 Descending Indianapolis Center
09:50PM 38.3447 -80.8078 94° East 495 570 37,000  Level Indianapolis Center
09:51PM 38.3361 -80.6342 94° East 494 568 37,000  Level Indianapolis Center
09:51PM 38.3283 -80.5256 95° East 499 574 37,000  Level Washington Center
09:52PM 38.3183 -80.3581 94° East 493 567 37,000  Level Washington Center
09:53PM 38.3106 -80.1883 93° East 481 554 37,000  Level Washington Center
09:54PM 38.2994 -80.0342 95° East 487 560 37,000  Level Washington Center
09:55PM 38.2892 -79.8614 94° East 487 560 37,000  Level Washington Center
09:56PM 38.2783 -79.6942 95° East 482 555 37,000 -540 Level Washington Center
09:57PM 38.2672 -79.5244 95° East 482 555 36,000 -1,980 Descending Washington Center
09:58PM 38.2714 -79.3342 88° East 482 555 33,100 -2,580 Descending Washington Center
09:59PM 38.3139 -79.1722 71° East 479 551 30,900 -2,220 Descending Washington Center
10:00PM 38.3539 -79.0153 72° East 479 551 28,700 -1,980 Descending Washington Center
10:01PM 38.3894 -78.8581 74° East 467 537 27,000 -1,740 Descending Washington Center
10:02PM 38.4289 -78.7111 71° East 453 521 25,200 -1,860 Descending Washington Center
10:03PM 38.4658 -78.5642 72° East 441 507 23,300 -1,440 Descending Washington Center
10:04PM 38.5050 -78.4172 71° East 436 502 22,300 -1,020 Descending Washington Center
10:05PM 38.5394 -78.2753 73° East 436 502 21,300 -1,020 Descending Washington Center
10:06PM 38.5739 -78.1331 73° East 425 489 20,300 -1,020 Descending Washington Center
10:07PM 38.6081 -77.9961 72° East 414 476 19,300 -660 Descending Washington Center
10:08PM 38.6375 -77.8694 73° East 398 458 19,000 -720 Descending Washington Center
10:09PM 38.6333 -77.7525 93° East 362 417 18,000 -1,320 Descending Washington Center
10:10PM 38.6169 -77.6269 99° East 362 417 16,400 -1,020 Descending Washington Center
10:11PM 38.6022 -77.5017 99° East 362 417 16,000 -240 Descending Washington Center
10:12PM 38.5917 -77.3792 96° East 357 411 16,000 -60 Level Washington Center
10:13PM 38.6161 -77.2575 76° East 343 395 15,900 -960 Descending Washington Center
10:14PM 38.6500 -77.1333 71° East 339 390 14,200 -1,800 Descending Potomac TRACON
10:15PM 38.6833 -77.0167 70° East 331 381 12,400 -1,680 Descending Potomac TRACON
10:16PM 38.7000 -76.9167 78° East 324 373 10,900 -1,320 Descending Potomac TRACON
10:17PM 38.7333 -76.8000 70° East 303 349 9,900 -1,200 Descending Potomac TRACON
10:18PM 38.7500 -76.7000 78° East 280 322 8,400 -1,380 Descending Potomac TRACON
10:19PM 38.7833 -76.6167 63° Northeast 276 318 7,200 -1,200 Descending Potomac TRACON
10:20PM 38.8167 -76.5333 63° Northeast 270 311 6,000 -1,080 Descending Potomac TRACON
10:21PM 38.8833 -76.5000 21° North 252 290 5,000 -960 Descending Potomac TRACON
10:22PM 38.9500 -76.5167 349° North 243 280 4,200 -720 Descending Potomac TRACON
10:23PM 39.0000 -76.5333 345° North 207 238 3,800 -780 Descending Potomac TRACON
10:24PM 39.0500 -76.5500 345° North 195 224 2,800 -960 Descending Potomac TRACON
10:25PM 39.0833 -76.6000 311° West 172 198 1,900 -900 Descending Potomac TRACON
10:26PM 39.1333 -76.6333 333° Northwest 157 181 900 -840 Descending Potomac TRACON
10:28PM 39.1667 -76.6667 339° North  Level FlightAware Approximate
10:35PM 39.1754 -76.6683 339° North  Level Estimated
10:36PM 39.1754 -76.6683 339° North  Level Estimated
10:37PM 39.1754 -76.6683 339° North  Level Estimated
10:38PM 39.1754 -76.6683 339° North  Level Estimated
10:39PM 39.1754 -76.6683 339° North  Level Estimated